»·PEaware :: N5MW KEUG-KPDX

N5MW :: KEUG-KPDX

FLIGHT INFORMATION

Flight Status: Arrived
Operator: Privately registered:
United States
More flights under this callsign
Pilot: Max W. (2591)
Aircraft: AERMACCHI SF-260TP
(F26T)
More flights by this aircraft type
Origin: KEUG Mahlon Sweet
United States
Destination: KPDX Portland Intl
United States
More flights between these airports :: More routes between these airports
Route: +CVO V495 UBG
File this flight plan on PilotEdge
Remarks: STUDENT PILOT WILL NEED PROGRESSIVE TAXI
Altitude:
(Current/Filed)
7,000ft
Speed:
(Current/Filed)
450kts
Departed: 14-Nov-18 04:39 PM
Arrived: 14-Nov-18 05:24 PM
Distance/Time
Traveled:
92nm/0:45
Distance/Time
To Go:
Arrived

Flight Plot

Page will automatically refresh every two minutes.

Flight plan parsing failed; only flown route is shown


Map Options




Map Legend


Flown Route
Filed Route
Departure Airport
Arrival Airport
Navaid (VOR, NDB)
Fix

Horizontal Profiles

Position Reports

Time Latitude Longitude Heading Altitude Ground
Speed
14-Nov-18 16:32 44.115007 -123.215765 0 364ft 0kts
14-Nov-18 16:33 44.115021 -123.215765 359 364ft 0kts
14-Nov-18 16:34 44.115021 -123.215765 359 364ft 0kts
14-Nov-18 16:35 44.115025 -123.215765 358 364ft 0kts
14-Nov-18 16:36 44.115871 -123.215761 329 364ft 0kts
14-Nov-18 16:37 44.115897 -123.215782 317 364ft 0kts
14-Nov-18 16:38 44.115897 -123.215782 317 364ft 0kts
14-Nov-18 16:39 44.116009 -123.215929 308 364ft 6kts
14-Nov-18 16:40 44.115651 -123.216348 222 364ft 12kts
14-Nov-18 16:41 44.114027 -123.217895 240 363ft 7kts
14-Nov-18 16:42 44.131178 -123.218339 1 993ft 110kts
14-Nov-18 16:43 44.163556 -123.216702 356 2091ft 115kts
14-Nov-18 16:44 44.195050 -123.216223 0 3098ft 110kts
14-Nov-18 16:45 44.224277 -123.222194 346 4094ft 104kts
14-Nov-18 16:46 44.250394 -123.228627 345 5096ft 93kts
14-Nov-18 16:47 44.276879 -123.235237 345 5914ft 103kts
14-Nov-18 16:48 44.305900 -123.242461 345 6720ft 109kts
14-Nov-18 16:49 44.341845 -123.251455 346 6831ft 146kts
14-Nov-18 16:50 44.383701 -123.261725 347 6827ft 156kts
14-Nov-18 16:51 44.426818 -123.272263 347 6827ft 159kts
14-Nov-18 16:52 44.471018 -123.283074 348 6826ft 162kts
14-Nov-18 16:53 44.515602 -123.293949 348 6825ft 162kts
14-Nov-18 16:54 44.560066 -123.280794 12 6826ft 165kts
14-Nov-18 16:55 44.604495 -123.264048 12 6825ft 165kts
14-Nov-18 16:56 44.648767 -123.247334 12 6825ft 165kts
14-Nov-18 16:57 44.693324 -123.230453 11 6824ft 167kts
14-Nov-18 16:58 44.738435 -123.213346 11 6822ft 169kts
14-Nov-18 16:59 44.784469 -123.195894 10 6820ft 173kts
14-Nov-18 17:00 44.831748 -123.177976 11 6819ft 178kts
14-Nov-18 17:01 44.879579 -123.159804 11 6818ft 180kts
14-Nov-18 17:02 44.928165 -123.141305 11 6818ft 181kts
14-Nov-18 17:03 44.975981 -123.123042 11 6819ft 174kts
14-Nov-18 17:04 45.024008 -123.104656 11 6818ft 180kts
14-Nov-18 17:05 45.072028 -123.086178 10 6818ft 178kts
14-Nov-18 17:06 45.118783 -123.068166 10 6819ft 174kts
14-Nov-18 17:07 45.164786 -123.050442 10 6819ft 172kts
14-Nov-18 17:08 45.210559 -123.032788 10 6820ft 171kts
14-Nov-18 17:09 45.255694 -123.011324 14 6821ft 171kts
14-Nov-18 17:10 45.299974 -122.988902 15 6821ft 152kts
14-Nov-18 17:11 45.330722 -122.966513 12 6203ft 143kts
14-Nov-18 17:12 45.366741 -122.948606 14 5577ft 147kts
14-Nov-18 17:13 45.408155 -122.930095 14 4709ft 161kts
14-Nov-18 17:14 45.451112 -122.912551 14 3867ft 157kts
14-Nov-18 17:15 45.490047 -122.897102 14 3834ft 140kts
14-Nov-18 17:16 45.528962 -122.882599 14 3836ft 148kts
14-Nov-18 17:17 45.566205 -122.900566 326 3835ft 154kts
14-Nov-18 17:18 45.601939 -122.932338 2 3830ft 150kts
14-Nov-18 17:19 45.639946 -122.909605 25 3836ft 149kts
14-Nov-18 17:20 45.678846 -122.876893 69 3169ft 172kts
14-Nov-18 17:21 45.675881 -122.812081 119 2244ft 176kts
14-Nov-18 17:22 45.656554 -122.756298 113 2217ft 141kts
14-Nov-18 17:23 45.638843 -122.707354 122 1756ft 127kts
14-Nov-18 17:24 45.624855 -122.671932 108 1209ft 96kts
14-Nov-18 17:25 45.611147 -122.637143 114 701ft 104kts
14-Nov-18 17:26 45.597527 -122.602628 118 188ft 101kts
14-Nov-18 17:27 45.588599 -122.582239 220 19ft 0kts
14-Nov-18 17:28 45.587445 -122.585301 61 19ft 9kts
14-Nov-18 17:29 45.587483 -122.585245 32 19ft 0kts

Navigation Log

Ident Type
Flight plan parsing failed, navigation log unavailable